createdAt,value
2023-02-06T00:00:12.463Z,5.00
2023-02-06T00:02:40.186Z,5.10
2023-02-06T00:05:08.571Z,5.20
2023-02-06T00:07:36.256Z,5.00
2023-02-06T00:10:04.148Z,4.70
2023-02-06T00:12:32.334Z,4.40
2023-02-06T00:15:00.166Z,4.90
2023-02-06T00:17:29.201Z,4.80
2023-02-06T00:19:56.947Z,4.50
2023-02-06T00:22:24.631Z,4.80
2023-02-06T00:24:52.350Z,4.70
2023-02-06T00:27:20.034Z,4.70
2023-02-06T00:29:47.738Z,4.80
2023-02-06T00:32:15.499Z,4.70
2023-02-06T00:34:44.609Z,4.60
2023-02-06T00:37:12.905Z,4.90
2023-02-06T00:39:40.609Z,4.50
2023-02-06T00:42:08.434Z,4.60
2023-02-06T00:44:36.164Z,4.50
2023-02-06T00:47:03.848Z,4.50
2023-02-06T00:49:31.559Z,4.30
2023-02-06T00:52:00.655Z,4.10
2023-02-06T00:54:28.556Z,4.30
2023-02-06T00:56:56.265Z,4.10
2023-02-06T00:59:24.041Z,4.50
2023-02-06T01:01:51.779Z,4.40
2023-02-06T01:04:19.552Z,4.30
2023-02-06T01:06:47.353Z,4.10
2023-02-06T01:09:16.466Z,4.40
2023-02-06T01:11:44.221Z,4.00
2023-02-06T01:14:12.136Z,3.90
2023-02-06T01:16:39.829Z,4.10
2023-02-06T01:19:07.577Z,4.10
2023-02-06T01:21:35.371Z,4.00
2023-02-06T01:24:03.105Z,4.10
2023-02-06T01:26:32.243Z,4.00
2023-02-06T01:28:59.990Z,4.10
2023-02-06T01:31:29.950Z,4.20
2023-02-06T01:33:59.110Z,4.10
2023-02-06T01:36:27.781Z,4.20
2023-02-06T01:38:55.696Z,4.30
2023-02-06T01:41:24.344Z,4.30
2023-02-06T01:44:10.708Z,4.30
2023-02-06T01:46:39.418Z,4.30
2023-02-06T01:49:09.152Z,4.60
2023-02-06T01:51:37.113Z,4.20
2023-02-06T01:54:08.360Z,4.50
2023-02-06T01:56:40.053Z,4.60
2023-02-06T01:59:09.490Z,4.60
2023-02-06T02:01:37.234Z,4.50
2023-02-06T02:04:08.225Z,4.60
2023-02-06T02:06:36.062Z,4.60
2023-02-06T02:09:05.002Z,4.60
2023-02-06T02:11:34.983Z,4.60
2023-02-06T02:14:05.197Z,4.40
2023-02-06T02:16:42.937Z,4.40
2023-02-06T02:19:37.790Z,4.20
2023-02-06T02:22:40.757Z,4.00
2023-02-06T02:25:42.665Z,4.00
2023-02-06T02:28:37.365Z,3.90
2023-02-06T02:31:20.869Z,3.90
2023-02-06T02:34:21.492Z,3.90
2023-02-06T02:36:56.790Z,3.70
2023-02-06T02:39:32.552Z,3.60
2023-02-06T02:42:06.335Z,3.50
2023-02-06T02:44:41.385Z,3.40
2023-02-06T02:47:12.856Z,3.50
2023-02-06T02:49:41.683Z,3.30
2023-02-06T02:52:10.767Z,3.30
2023-02-06T02:54:38.581Z,3.40
2023-02-06T02:57:09.767Z,3.30
2023-02-06T02:59:40.303Z,3.30
2023-02-06T03:02:13.058Z,3.30
2023-02-06T03:04:46.976Z,3.30
2023-02-06T03:07:25.332Z,3.10
2023-02-06T03:10:04.008Z,3.40
2023-02-06T03:12:40.782Z,3.30
2023-02-06T03:15:16.128Z,3.40
2023-02-06T03:17:50.334Z,3.20
2023-02-06T03:20:18.277Z,3.20
2023-02-06T03:22:50.329Z,2.80
2023-02-06T03:25:26.086Z,3.30
2023-02-06T03:27:55.395Z,3.30
2023-02-06T03:30:25.487Z,3.30
2023-02-06T03:33:02.830Z,3.30
2023-02-06T03:35:35.987Z,3.30
2023-02-06T03:38:07.740Z,3.20
2023-02-06T03:40:36.024Z,3.10
2023-02-06T03:43:05.750Z,2.90
2023-02-06T03:45:37.869Z,3.00
2023-02-06T03:48:11.684Z,3.20
2023-02-06T03:50:44.064Z,3.00
2023-02-06T03:53:15.270Z,3.20
2023-02-06T03:55:45.048Z,3.30
2023-02-06T03:58:15.116Z,3.40
2023-02-06T04:00:44.918Z,3.50
2023-02-06T04:03:14.769Z,3.50
2023-02-06T04:05:42.519Z,3.40
2023-02-06T04:08:10.655Z,3.30
2023-02-06T04:10:39.713Z,3.30
2023-02-06T04:13:07.490Z,3.00
2023-02-06T04:15:36.958Z,3.30
2023-02-06T04:18:06.133Z,2.90
2023-02-06T04:20:34.174Z,2.80
2023-02-06T04:23:01.955Z,3.20
2023-02-06T04:25:29.689Z,2.80
2023-02-06T04:27:59.102Z,3.10
2023-02-06T04:30:26.949Z,2.30
2023-02-06T04:32:54.727Z,3.20
2023-02-06T04:35:22.735Z,3.00
2023-02-06T04:37:50.439Z,2.80
2023-02-06T04:40:18.580Z,2.70
2023-02-06T04:42:46.302Z,2.70
2023-02-06T04:45:15.539Z,2.70
2023-02-06T04:47:43.450Z,2.90
2023-02-06T04:50:11.556Z,2.90
2023-02-06T04:52:39.249Z,2.80
2023-02-06T04:55:08.130Z,2.60
2023-02-06T04:57:35.874Z,2.60
2023-02-06T05:00:03.802Z,2.80
2023-02-06T05:02:37.267Z,2.50
2023-02-06T05:05:05.332Z,2.50
2023-02-06T05:07:33.162Z,2.70
2023-02-06T05:10:00.852Z,2.40
2023-02-06T05:12:29.015Z,2.60
2023-02-06T05:14:56.843Z,2.30
2023-02-06T05:17:24.575Z,2.50
2023-02-06T05:19:53.712Z,2.30
2023-02-06T05:22:21.394Z,2.20
2023-02-06T05:24:49.185Z,2.20
2023-02-06T05:27:16.945Z,2.40
2023-02-06T05:29:44.737Z,2.50
2023-02-06T05:32:12.442Z,2.20
2023-02-06T05:34:40.130Z,2.50
2023-02-06T05:37:09.194Z,2.40
2023-02-06T05:39:36.980Z,2.40
2023-02-06T05:42:05.044Z,2.30
2023-02-06T05:44:32.864Z,2.60
2023-02-06T05:47:00.576Z,2.40
2023-02-06T05:49:28.369Z,2.40
2023-02-06T05:51:56.164Z,2.40
2023-02-06T05:54:25.425Z,2.40
2023-02-06T05:56:53.182Z,2.40
2023-02-06T05:59:21.099Z,2.50
2023-02-06T06:01:48.890Z,2.60
2023-02-06T06:04:16.741Z,2.50
2023-02-06T06:06:44.432Z,2.60
2023-02-06T06:09:12.164Z,2.50
2023-02-06T06:11:41.309Z,2.60
2023-02-06T06:14:09.248Z,3.00
2023-02-06T06:16:36.990Z,2.70
2023-02-06T06:19:04.779Z,3.00
2023-02-06T06:21:33.792Z,3.10
2023-02-06T06:24:01.856Z,3.10
2023-02-06T06:26:29.672Z,3.20
2023-02-06T06:28:58.825Z,3.20
2023-02-06T06:31:26.615Z,3.10
2023-02-06T06:33:54.659Z,3.30
2023-02-06T06:36:22.489Z,3.00
2023-02-06T06:38:50.352Z,3.50
2023-02-06T06:41:18.140Z,3.30
2023-02-06T06:43:45.896Z,3.10
2023-02-06T06:46:14.913Z,3.20
2023-02-06T06:48:42.787Z,2.90
2023-02-06T06:51:10.519Z,3.10
2023-02-06T06:53:39.977Z,3.10
2023-02-06T06:56:09.602Z,3.00
2023-02-06T06:58:37.385Z,3.40
2023-02-06T07:01:05.602Z,3.00
2023-02-06T07:03:34.684Z,3.40
2023-02-06T07:06:02.540Z,3.20
2023-02-06T07:08:30.846Z,3.20
2023-02-06T07:10:58.753Z,3.50
2023-02-06T07:13:26.472Z,3.50
2023-02-06T07:15:54.223Z,3.40
2023-02-06T07:18:22.464Z,3.50
2023-02-06T07:20:51.780Z,3.50
2023-02-06T07:23:19.570Z,3.40
2023-02-06T07:25:47.321Z,3.10
2023-02-06T07:28:15.163Z,3.50
2023-02-06T07:30:43.052Z,3.20
2023-02-06T07:33:10.942Z,3.40
2023-02-06T07:35:38.871Z,3.50
2023-02-06T07:38:08.147Z,3.60
2023-02-06T07:40:44.571Z,3.30
2023-02-06T07:43:13.444Z,3.70
2023-02-06T07:45:41.634Z,3.80
2023-02-06T07:48:09.703Z,3.50
2023-02-06T07:50:37.594Z,3.70
2023-02-06T07:53:05.571Z,3.90
2023-02-06T07:55:37.667Z,3.60
2023-02-06T07:58:05.631Z,3.80
2023-02-06T08:00:33.776Z,3.90
2023-02-06T08:03:01.508Z,3.80
2023-02-06T08:05:29.359Z,3.80
2023-02-06T08:07:57.198Z,4.00
2023-02-06T08:10:25.274Z,4.00
2023-02-06T08:12:54.441Z,4.00
2023-02-06T08:15:22.155Z,4.00
2023-02-06T08:17:49.876Z,4.10
2023-02-06T08:20:17.858Z,4.00
2023-02-06T08:22:46.720Z,4.00
2023-02-06T08:25:14.533Z,4.10
2023-02-06T08:27:42.290Z,4.00
2023-02-06T08:30:14.279Z,4.10
2023-02-06T08:32:42.078Z,4.20
2023-02-06T08:35:09.863Z,4.00
2023-02-06T08:37:37.628Z,4.00
2023-02-06T08:40:06.280Z,3.60
2023-02-06T08:42:34.160Z,4.10
2023-02-06T08:45:01.929Z,4.20
2023-02-06T08:47:30.985Z,4.20
2023-02-06T08:49:59.313Z,4.30
2023-02-06T08:52:28.256Z,4.10
2023-02-06T08:54:55.985Z,4.60
2023-02-06T08:57:23.670Z,4.60
2023-02-06T08:59:51.715Z,4.50
2023-02-06T09:02:21.180Z,4.50
2023-02-06T09:04:52.534Z,4.50
2023-02-06T09:07:22.291Z,4.50
2023-02-06T09:09:52.035Z,4.60
2023-02-06T09:12:22.178Z,4.70
2023-02-06T09:14:51.990Z,4.50
2023-02-06T09:17:21.611Z,4.50
2023-02-06T09:19:52.578Z,4.70
2023-02-06T09:22:22.159Z,4.90
2023-02-06T09:24:51.991Z,5.20
2023-02-06T09:27:22.154Z,5.00
2023-02-06T09:29:51.834Z,5.40
2023-02-06T09:32:21.615Z,5.30
2023-02-06T09:34:53.040Z,5.30
2023-02-06T09:37:24.138Z,5.30
2023-02-06T09:39:53.800Z,5.30
2023-02-06T09:42:36.304Z,5.30
2023-02-06T09:45:10.237Z,5.30
2023-02-06T09:47:44.530Z,5.20
2023-02-06T09:50:26.022Z,5.00
2023-02-06T09:53:08.584Z,5.30
2023-02-06T09:55:42.691Z,5.60
2023-02-06T09:58:22.640Z,5.40
2023-02-06T10:00:54.405Z,5.30
2023-02-06T10:03:39.791Z,5.40
2023-02-06T10:06:19.050Z,5.50
2023-02-06T10:08:52.510Z,5.90
2023-02-06T10:11:28.289Z,5.90
2023-02-06T10:14:00.435Z,5.80
2023-02-06T10:16:39.632Z,6.00
2023-02-06T10:19:15.851Z,6.00
2023-02-06T10:21:47.262Z,6.00
2023-02-06T10:24:24.772Z,6.00
2023-02-06T10:26:54.555Z,6.20
2023-02-06T10:29:26.540Z,6.00
2023-02-06T10:32:03.913Z,6.30
2023-02-06T10:34:45.412Z,6.10
2023-02-06T10:37:32.104Z,6.40
2023-02-06T10:40:19.204Z,6.20
2023-02-06T10:42:54.468Z,6.30
2023-02-06T10:45:35.324Z,6.40
2023-02-06T10:48:11.529Z,6.50
2023-02-06T10:50:44.091Z,6.20
2023-02-06T10:53:19.292Z,6.50
2023-02-06T10:55:52.388Z,6.40
2023-02-06T10:58:25.059Z,6.10
2023-02-06T11:00:54.550Z,6.40
2023-02-06T11:03:25.334Z,6.80
2023-02-06T11:05:53.897Z,6.80
2023-02-06T11:08:27.297Z,6.80
2023-02-06T11:10:55.929Z,7.40
2023-02-06T11:13:28.138Z,7.90
2023-02-06T11:16:02.423Z,8.20
2023-02-06T11:18:34.141Z,8.60
2023-02-06T11:21:02.663Z,8.60
2023-02-06T11:23:34.628Z,8.90
2023-02-06T11:26:10.417Z,8.60
2023-02-06T11:28:41.410Z,8.80
2023-02-06T11:31:10.416Z,9.10
2023-02-06T11:33:47.191Z,9.10
2023-02-06T11:36:27.162Z,8.90
2023-02-06T11:38:58.438Z,8.30
2023-02-06T11:41:26.207Z,8.20
2023-02-06T11:44:01.454Z,8.20
2023-02-06T11:46:30.899Z,8.40
2023-02-06T11:49:08.443Z,9.10
2023-02-06T11:51:54.277Z,9.60
2023-02-06T11:54:29.254Z,8.90
2023-02-06T11:57:00.215Z,9.20
2023-02-06T11:59:28.607Z,8.90
2023-02-06T12:01:57.510Z,8.50
2023-02-06T12:04:31.510Z,8.30
2023-02-06T12:07:04.635Z,8.20
2023-02-06T12:09:33.802Z,8.10
2023-02-06T12:12:05.930Z,8.10
2023-02-06T12:14:39.327Z,8.10
2023-02-06T12:17:21.508Z,8.00
2023-02-06T12:19:52.772Z,9.10
2023-02-06T12:22:24.065Z,9.20
2023-02-06T12:24:57.276Z,9.10
2023-02-06T12:27:30.196Z,8.90
2023-02-06T12:30:02.406Z,8.60
2023-02-06T12:32:35.405Z,8.90
2023-02-06T12:35:15.408Z,9.10
2023-02-06T12:37:48.830Z,10.20
2023-02-06T12:40:28.106Z,10.80
2023-02-06T12:43:00.993Z,11.40
2023-02-06T12:45:39.976Z,11.90
2023-02-06T12:48:15.526Z,12.30
2023-02-06T12:50:47.570Z,12.60
2023-02-06T12:53:19.039Z,12.60
2023-02-06T12:55:53.850Z,13.20
2023-02-06T12:58:24.764Z,13.10
2023-02-06T13:01:03.295Z,12.90
2023-02-06T13:03:36.502Z,12.60
2023-02-06T13:06:14.231Z,12.10
2023-02-06T13:08:47.198Z,11.80
2023-02-06T13:11:31.753Z,10.90
2023-02-06T13:14:06.683Z,10.20
2023-02-06T13:16:56.671Z,9.60
2023-02-06T13:19:31.039Z,9.90
2023-02-06T13:22:32.845Z,9.90
2023-02-06T13:25:03.328Z,9.40
2023-02-06T13:27:39.984Z,9.90
2023-02-06T13:30:47.426Z,10.80
2023-02-06T13:33:16.799Z,11.20
2023-02-06T13:35:56.483Z,11.90
2023-02-06T13:38:38.274Z,12.30
2023-02-06T13:41:29.829Z,12.50
2023-02-06T13:44:01.839Z,11.60
2023-02-06T13:46:43.529Z,10.80
2023-02-06T13:49:34.024Z,9.90
2023-02-06T13:52:07.748Z,10.20
2023-02-06T13:54:51.357Z,10.70
2023-02-06T13:57:32.862Z,10.90
2023-02-06T14:00:04.530Z,11.20
2023-02-06T14:02:38.172Z,11.50
2023-02-06T14:05:10.657Z,11.50
2023-02-06T14:08:13.227Z,11.90
2023-02-06T14:11:06.025Z,12.30
2023-02-06T14:13:52.653Z,11.50
2023-02-06T14:16:32.285Z,11.10
2023-02-06T14:19:04.315Z,10.80
2023-02-06T14:21:40.165Z,10.70
2023-02-06T14:24:20.040Z,10.70
2023-02-06T14:27:01.848Z,10.60
2023-02-06T14:29:41.196Z,10.70
2023-02-06T14:32:32.531Z,10.10
2023-02-06T14:35:22.160Z,10.10
2023-02-06T14:38:17.514Z,9.20
2023-02-06T14:40:49.871Z,8.90
2023-02-06T14:43:20.615Z,8.90
2023-02-06T14:46:06.196Z,9.20
2023-02-06T14:48:40.932Z,8.90
2023-02-06T14:51:17.313Z,8.80
2023-02-06T14:53:53.552Z,8.60
2023-02-06T14:56:27.912Z,8.40
2023-02-06T14:58:56.359Z,8.00
2023-02-06T15:01:27.633Z,7.80
2023-02-06T15:04:10.752Z,7.70
2023-02-06T15:06:40.400Z,7.20
2023-02-06T15:09:08.904Z,7.60
2023-02-06T15:11:36.750Z,7.40
2023-02-06T15:14:08.938Z,7.10
2023-02-06T15:16:47.175Z,7.10
2023-02-06T15:19:21.603Z,6.90
2023-02-06T15:21:50.085Z,7.00
2023-02-06T15:24:38.599Z,6.90
2023-02-06T15:27:11.826Z,6.80
2023-02-06T15:29:39.712Z,6.90
2023-02-06T15:32:17.830Z,7.00
2023-02-06T15:34:47.501Z,6.90
2023-02-06T15:37:28.533Z,6.60
2023-02-06T15:39:58.256Z,6.70
2023-02-06T15:42:26.307Z,6.70
2023-02-06T15:44:54.137Z,6.80
2023-02-06T15:47:22.775Z,6.60
2023-02-06T15:49:53.194Z,6.60
2023-02-06T15:52:35.792Z,6.60
2023-02-06T15:55:04.697Z,6.50
2023-02-06T15:57:35.546Z,6.50
2023-02-06T16:00:09.173Z,5.90
2023-02-06T16:02:38.423Z,6.20
2023-02-06T16:05:19.748Z,6.20
2023-02-06T16:07:48.775Z,6.30
2023-02-06T16:10:22.892Z,6.30
2023-02-06T16:12:52.204Z,6.10
2023-02-06T16:15:31.530Z,6.20
2023-02-06T16:18:01.200Z,6.00
2023-02-06T16:20:39.607Z,5.90
2023-02-06T16:23:25.596Z,5.70
2023-02-06T16:26:07.298Z,6.00
2023-02-06T16:28:41.923Z,5.90
2023-02-06T16:31:13.773Z,5.80
2023-02-06T16:33:45.427Z,5.80
2023-02-06T16:36:16.175Z,5.90
2023-02-06T16:38:51.031Z,5.80
2023-02-06T16:41:32.889Z,5.70
2023-02-06T16:44:01.731Z,5.60
2023-02-06T16:46:29.915Z,5.80
2023-02-06T16:48:59.130Z,5.70
2023-02-06T16:51:30.820Z,6.00
2023-02-06T16:53:59.511Z,5.80
2023-02-06T16:56:27.284Z,5.80
2023-02-06T16:58:55.085Z,5.70
2023-02-06T17:01:26.443Z,5.90
2023-02-06T17:03:54.896Z,5.80
2023-02-06T17:06:25.441Z,5.90
2023-02-06T17:08:56.933Z,5.90
2023-02-06T17:11:24.906Z,5.80
2023-02-06T17:13:53.079Z,5.90
2023-02-06T17:16:23.465Z,5.80
2023-02-06T17:18:51.877Z,5.80
2023-02-06T17:21:21.792Z,5.80
2023-02-06T17:23:51.116Z,6.00
2023-02-06T17:26:23.224Z,5.60
2023-02-06T17:28:52.349Z,5.60
2023-02-06T17:31:20.768Z,5.60
2023-02-06T17:33:48.892Z,5.30
2023-02-06T17:36:18.195Z,5.60
2023-02-06T17:38:46.256Z,5.20
2023-02-06T17:41:14.097Z,5.10
2023-02-06T17:43:43.367Z,5.10
2023-02-06T17:46:11.948Z,4.90
2023-02-06T17:48:42.770Z,4.90
2023-02-06T17:51:10.888Z,5.10
2023-02-06T17:53:38.960Z,4.60
2023-02-06T17:56:08.682Z,4.90
2023-02-06T17:58:36.843Z,4.60
2023-02-06T18:01:11.064Z,4.60
2023-02-06T18:03:38.899Z,4.80
2023-02-06T18:06:07.096Z,4.50
2023-02-06T18:08:35.143Z,4.60
2023-02-06T18:11:09.422Z,4.60
2023-02-06T18:13:37.343Z,4.50
2023-02-06T18:16:07.939Z,4.40
2023-02-06T18:18:35.977Z,4.50
2023-02-06T18:21:04.562Z,4.30
2023-02-06T18:23:32.566Z,4.20
2023-02-06T18:26:03.346Z,4.40
2023-02-06T18:28:31.647Z,4.10
2023-02-06T18:31:02.002Z,4.10
2023-02-06T18:33:33.802Z,4.10
2023-02-06T18:36:06.195Z,4.00
2023-02-06T18:38:34.252Z,4.00
2023-02-06T18:41:04.296Z,4.10
2023-02-06T18:43:31.813Z,4.10
2023-02-06T18:46:06.789Z,3.90
2023-02-06T18:48:36.183Z,3.90
2023-02-06T18:51:08.045Z,4.10
2023-02-06T18:53:36.127Z,3.90
2023-02-06T18:56:04.642Z,4.10
2023-02-06T18:58:32.494Z,3.90
2023-02-06T19:01:00.421Z,4.00
2023-02-06T19:03:28.458Z,3.80
2023-02-06T19:05:57.720Z,4.00
2023-02-06T19:08:25.635Z,3.80
2023-02-06T19:10:57.395Z,3.90
2023-02-06T19:13:25.301Z,3.80
2023-02-06T19:16:05.756Z,4.00
2023-02-06T19:18:38.691Z,3.60
2023-02-06T19:21:11.654Z,3.60
2023-02-06T19:23:40.093Z,3.60
2023-02-06T19:26:09.214Z,3.60
2023-02-06T19:28:38.145Z,3.40
2023-02-06T19:31:07.409Z,3.20
2023-02-06T19:33:37.537Z,3.30
2023-02-06T19:36:07.533Z,3.30
2023-02-06T19:38:37.028Z,3.30
2023-02-06T19:41:08.553Z,3.40
2023-02-06T19:43:36.938Z,3.30
2023-02-06T19:46:06.110Z,3.10
2023-02-06T19:48:34.787Z,3.40
2023-02-06T19:51:06.789Z,3.30
2023-02-06T19:53:36.383Z,3.60
2023-02-06T19:56:05.435Z,3.60
2023-02-06T19:58:33.766Z,3.50
2023-02-06T20:01:09.031Z,3.70
2023-02-06T20:03:36.962Z,3.60
2023-02-06T20:06:06.532Z,3.60
2023-02-06T20:08:35.911Z,3.50
2023-02-06T20:11:05.680Z,3.50
2023-02-06T20:13:33.797Z,3.60
2023-02-06T20:16:03.672Z,3.40
2023-02-06T20:18:32.012Z,3.70
2023-02-06T20:21:00.036Z,3.60
2023-02-06T20:23:28.610Z,3.40
2023-02-06T20:25:58.253Z,3.50
2023-02-06T20:28:27.643Z,3.40
2023-02-06T20:30:55.832Z,3.50
2023-02-06T20:33:24.104Z,2.70
2023-02-06T20:35:52.012Z,3.50
2023-02-06T20:38:19.939Z,3.30
2023-02-06T20:40:51.264Z,3.30
2023-02-06T20:43:20.732Z,3.40
2023-02-06T20:45:48.685Z,3.40
2023-02-06T20:48:16.470Z,3.50
2023-02-06T20:50:44.222Z,3.50
2023-02-06T20:53:12.012Z,3.50
2023-02-06T20:55:43.977Z,3.40
2023-02-06T20:58:12.006Z,3.40
2023-02-06T21:00:41.598Z,3.20
2023-02-06T21:03:09.369Z,3.40
2023-02-06T21:05:37.243Z,3.30
2023-02-06T21:08:05.371Z,3.30
2023-02-06T21:10:33.243Z,3.30
2023-02-06T21:13:00.971Z,3.40
2023-02-06T21:15:28.783Z,3.30
2023-02-06T21:17:58.049Z,3.30
2023-02-06T21:20:25.827Z,3.30
2023-02-06T21:22:55.078Z,3.40
2023-02-06T21:25:23.837Z,3.40
2023-02-06T21:27:51.667Z,3.40
2023-02-06T21:30:19.587Z,3.20
2023-02-06T21:32:47.417Z,3.40
2023-02-06T21:35:16.822Z,3.40
2023-02-06T21:37:44.670Z,3.30
2023-02-06T21:40:12.963Z,3.20
2023-02-06T21:42:40.694Z,3.30
2023-02-06T21:45:09.777Z,3.30
2023-02-06T21:47:37.537Z,3.40
2023-02-06T21:50:06.158Z,3.30
2023-02-06T21:52:37.717Z,3.30
2023-02-06T21:55:07.603Z,3.30
2023-02-06T21:57:35.639Z,3.40
2023-02-06T22:00:03.379Z,3.30
2023-02-06T22:02:31.224Z,3.10
2023-02-06T22:04:59.584Z,3.30
2023-02-06T22:07:27.383Z,3.40
2023-02-06T22:09:56.497Z,3.40
2023-02-06T22:12:24.398Z,3.20
2023-02-06T22:14:52.178Z,3.40
2023-02-06T22:17:19.881Z,3.30
2023-02-06T22:19:48.712Z,3.30
2023-02-06T22:22:16.536Z,3.30
2023-02-06T22:24:44.566Z,3.40
2023-02-06T22:27:13.734Z,3.20
2023-02-06T22:29:41.707Z,3.30
2023-02-06T22:32:09.524Z,3.30
2023-02-06T22:34:37.321Z,3.30
2023-02-06T22:37:05.149Z,2.90
2023-02-06T22:39:32.975Z,3.10
2023-02-06T22:42:00.845Z,2.70
2023-02-06T22:44:29.937Z,2.70
2023-02-06T22:46:57.735Z,3.20
2023-02-06T22:49:26.302Z,3.10
2023-02-06T22:51:54.375Z,3.00
2023-02-06T22:54:22.193Z,3.10
2023-02-06T22:56:50.100Z,2.90
2023-02-06T22:59:20.065Z,3.20
2023-02-06T23:01:51.353Z,3.10
2023-02-06T23:04:21.221Z,3.40
2023-02-06T23:06:49.762Z,3.10
2023-02-06T23:09:20.372Z,3.20
2023-02-06T23:11:48.946Z,3.30
2023-02-06T23:14:18.569Z,3.40
2023-02-06T23:16:47.402Z,3.10
2023-02-06T23:19:17.552Z,3.40
2023-02-06T23:21:47.389Z,3.40
2023-02-06T23:24:15.861Z,3.20
2023-02-06T23:26:45.624Z,3.40
2023-02-06T23:29:15.706Z,3.40
2023-02-06T23:31:43.634Z,3.30
2023-02-06T23:34:11.637Z,3.50
2023-02-06T23:36:41.238Z,3.00
2023-02-06T23:39:08.994Z,3.40
2023-02-06T23:41:36.694Z,3.30
2023-02-06T23:44:06.866Z,3.10
2023-02-06T23:46:36.784Z,3.30
2023-02-06T23:49:04.683Z,3.10
2023-02-06T23:51:32.907Z,3.20
2023-02-06T23:54:02.061Z,3.20
2023-02-06T23:56:31.686Z,3.00
2023-02-06T23:59:01.393Z,3.00
